Terminal Aerodrome Forecast
Issued by NWS

Home | Current Version | Previous Version | Text Only | Print | Product List | Glossary On
Versions: 1 2 3 4 5 6 7 8 9 10 11 12 13 14 15 16 17
000
FTUS43 KICT 021125
TAFHUT
TAF
KHUT 021125Z 0212/0312 13011KT P6SM SCT035 BKN045
     FM021600 16015G22KT P6SM SCT035
     FM022000 17018G25KT P6SM SCT045
     FM030100 15010KT P6SM FEW040 SCT250=

USA.gov is the U.S. government's official web portal to all federal, state and local government web resources and services.